Startpagina
METAR-TAF:

METAR-TAF

Vliegvelden :

Johannesburg, Zuid-Afrika

breedte: 26-09S, lengte: 28-00E, hoogte: 1626 m

Actueel weer

Dit bericht is 1 uur en het 7 minuten geleden gemaakt, om 21:00 UTC
Wind 1 kt uit het zuidzuidwesten
Temperatuur 6°C
Vochtigheid 24%
Druk 1024 hPa

METAR: FAJB 242100Z AUTO 21001KT //// // ////// 06/M13 Q1024

Tijdstip: 00:07 (22:07 UTC)


TAF: ontbreekt

Waarnemingen en weersverwachtingen van meer dan 4000 vliegvelden (METAR en TAF).

De beschikbare stations zijn de gele en rode punten op de kaart.

Ga met uw muis naar het station om de naam te zien.

Klik dan om waarnemingen en weersverwachtingen te zien.

kaart wijzigen: klik op de groene knoppen met een zwart kruis om in te zoomen, op de groene knop met een streepje om uit te zoomen of op de groene pijlen voor aangrenzende kaarten.


METAR-TAF: